sensor_id;sensor_type;location;lat;lon;timestamp;temperature;humidity
70368;DHT22;57789;53.868;10.728;2023-07-31T00:00:14;14.20;99.90
70368;DHT22;57789;53.868;10.728;2023-07-31T00:02:41;14.10;99.90
70368;DHT22;57789;53.868;10.728;2023-07-31T00:05:08;14.10;99.90
70368;DHT22;57789;53.868;10.728;2023-07-31T00:07:34;14.10;99.90
70368;DHT22;57789;53.868;10.728;2023-07-31T00:09:59;14.10;99.90
70368;DHT22;57789;53.868;10.728;2023-07-31T00:12:25;14.20;99.90
70368;DHT22;57789;53.868;10.728;2023-07-31T00:14:51;14.20;99.90
70368;DHT22;57789;53.868;10.728;2023-07-31T00:17:17;14.20;99.90
70368;DHT22;57789;53.868;10.728;2023-07-31T00:19:43;14.20;99.90
70368;DHT22;57789;53.868;10.728;2023-07-31T00:22:09;14.30;99.90
70368;DHT22;57789;53.868;10.728;2023-07-31T00:24:34;14.30;99.90
70368;DHT22;57789;53.868;10.728;2023-07-31T00:27:00;14.20;99.90
70368;DHT22;57789;53.868;10.728;2023-07-31T00:29:25;14.20;99.90
70368;DHT22;57789;53.868;10.728;2023-07-31T00:31:51;14.20;99.90
70368;DHT22;57789;53.868;10.728;2023-07-31T00:34:17;14.20;99.90
70368;DHT22;57789;53.868;10.728;2023-07-31T00:36:42;14.30;99.90
70368;DHT22;57789;53.868;10.728;2023-07-31T00:39:08;14.20;99.90
70368;DHT22;57789;53.868;10.728;2023-07-31T00:41:33;14.20;99.90
70368;DHT22;57789;53.868;10.728;2023-07-31T00:43:59;14.20;99.90
70368;DHT22;57789;53.868;10.728;2023-07-31T00:46:25;14.20;99.90
70368;DHT22;57789;53.868;10.728;2023-07-31T00:48:51;14.30;99.90
70368;DHT22;57789;53.868;10.728;2023-07-31T00:51:16;14.30;99.90
70368;DHT22;57789;53.868;10.728;2023-07-31T00:53:43;14.30;99.90
70368;DHT22;57789;53.868;10.728;2023-07-31T00:56:11;14.40;99.90
70368;DHT22;57789;53.868;10.728;2023-07-31T00:58:37;14.40;99.90
70368;DHT22;57789;53.868;10.728;2023-07-31T01:01:03;14.40;99.90
70368;DHT22;57789;53.868;10.728;2023-07-31T01:03:28;14.40;99.90
70368;DHT22;57789;53.868;10.728;2023-07-31T01:06:17;14.50;99.90
70368;DHT22;57789;53.868;10.728;2023-07-31T01:09:51;14.40;99.90
70368;DHT22;57789;53.868;10.728;2023-07-31T01:11:56;14.40;99.90
70368;DHT22;57789;53.868;10.728;2023-07-31T01:14:22;14.40;99.90
70368;DHT22;57789;53.868;10.728;2023-07-31T01:16:48;14.40;99.90
70368;DHT22;57789;53.868;10.728;2023-07-31T01:19:15;14.30;99.90
70368;DHT22;57789;53.868;10.728;2023-07-31T01:27:30;14.30;99.90
70368;DHT22;57789;53.868;10.728;2023-07-31T01:30:05;14.30;99.90
70368;DHT22;57789;53.868;10.728;2023-07-31T01:32:39;14.30;99.90
70368;DHT22;57789;53.868;10.728;2023-07-31T01:35:06;14.30;99.90
70368;DHT22;57789;53.868;10.728;2023-07-31T01:37:32;14.30;99.90
70368;DHT22;57789;53.868;10.728;2023-07-31T01:39:58;14.30;99.90
70368;DHT22;57789;53.868;10.728;2023-07-31T01:42:23;14.20;99.90
70368;DHT22;57789;53.868;10.728;2023-07-31T01:44:49;14.20;99.90
70368;DHT22;57789;53.868;10.728;2023-07-31T01:47:14;14.20;99.90
70368;DHT22;57789;53.868;10.728;2023-07-31T01:49:40;14.30;99.90
70368;DHT22;57789;53.868;10.728;2023-07-31T01:52:06;14.30;99.90
70368;DHT22;57789;53.868;10.728;2023-07-31T01:54:31;14.30;99.90
70368;DHT22;57789;53.868;10.728;2023-07-31T01:56:59;14.30;99.90
70368;DHT22;57789;53.868;10.728;2023-07-31T01:59:24;14.30;99.90
70368;DHT22;57789;53.868;10.728;2023-07-31T02:01:50;14.20;99.90
70368;DHT22;57789;53.868;10.728;2023-07-31T02:04:16;14.20;99.90
70368;DHT22;57789;53.868;10.728;2023-07-31T02:06:41;14.20;99.90
70368;DHT22;57789;53.868;10.728;2023-07-31T02:09:07;14.20;99.90
70368;DHT22;57789;53.868;10.728;2023-07-31T02:11:33;14.20;99.90
70368;DHT22;57789;53.868;10.728;2023-07-31T02:13:58;14.20;99.90
70368;DHT22;57789;53.868;10.728;2023-07-31T02:16:24;14.20;99.90
70368;DHT22;57789;53.868;10.728;2023-07-31T02:18:49;14.30;99.90
70368;DHT22;57789;53.868;10.728;2023-07-31T02:21:15;14.30;99.90
70368;DHT22;57789;53.868;10.728;2023-07-31T02:23:41;14.20;99.90
70368;DHT22;57789;53.868;10.728;2023-07-31T02:26:06;14.10;99.90
70368;DHT22;57789;53.868;10.728;2023-07-31T02:28:33;14.10;99.90
70368;DHT22;57789;53.868;10.728;2023-07-31T02:30:58;14.20;99.90
70368;DHT22;57789;53.868;10.728;2023-07-31T02:33:24;14.20;99.90
70368;DHT22;57789;53.868;10.728;2023-07-31T02:35:49;14.20;99.90
70368;DHT22;57789;53.868;10.728;2023-07-31T02:38:15;14.20;99.90
70368;DHT22;57789;53.868;10.728;2023-07-31T02:40:41;14.20;99.90
70368;DHT22;57789;53.868;10.728;2023-07-31T02:43:07;14.20;99.90
70368;DHT22;57789;53.868;10.728;2023-07-31T02:45:33;14.20;99.90
70368;DHT22;57789;53.868;10.728;2023-07-31T02:47:59;14.30;99.90
70368;DHT22;57789;53.868;10.728;2023-07-31T02:50:24;14.30;99.90
70368;DHT22;57789;53.868;10.728;2023-07-31T02:52:50;14.30;99.90
70368;DHT22;57789;53.868;10.728;2023-07-31T02:55:16;14.30;99.90
70368;DHT22;57789;53.868;10.728;2023-07-31T02:57:41;14.40;99.90
70368;DHT22;57789;53.868;10.728;2023-07-31T03:00:08;14.40;99.90
70368;DHT22;57789;53.868;10.728;2023-07-31T03:02:34;14.50;99.90
70368;DHT22;57789;53.868;10.728;2023-07-31T03:05:00;14.50;99.90
70368;DHT22;57789;53.868;10.728;2023-07-31T03:07:26;14.50;99.90
70368;DHT22;57789;53.868;10.728;2023-07-31T03:09:52;14.50;99.90
70368;DHT22;57789;53.868;10.728;2023-07-31T03:12:17;14.50;99.90
70368;DHT22;57789;53.868;10.728;2023-07-31T03:14:44;14.50;99.90
70368;DHT22;57789;53.868;10.728;2023-07-31T03:17:10;14.50;99.90
70368;DHT22;57789;53.868;10.728;2023-07-31T03:19:36;14.50;99.90
70368;DHT22;57789;53.868;10.728;2023-07-31T03:22:01;14.50;99.90
70368;DHT22;57789;53.868;10.728;2023-07-31T03:24:28;14.50;99.90
70368;DHT22;57789;53.868;10.728;2023-07-31T03:26:54;14.50;99.90
70368;DHT22;57789;53.868;10.728;2023-07-31T03:29:20;14.40;99.90
70368;DHT22;57789;53.868;10.728;2023-07-31T03:31:46;14.50;99.90
70368;DHT22;57789;53.868;10.728;2023-07-31T03:34:11;14.40;99.90
70368;DHT22;57789;53.868;10.728;2023-07-31T03:36:37;14.50;99.90
70368;DHT22;57789;53.868;10.728;2023-07-31T03:39:02;14.50;99.90
70368;DHT22;57789;53.868;10.728;2023-07-31T03:41:28;14.50;99.90
70368;DHT22;57789;53.868;10.728;2023-07-31T03:43:54;14.60;99.90
70368;DHT22;57789;53.868;10.728;2023-07-31T03:46:23;14.60;99.90
70368;DHT22;57789;53.868;10.728;2023-07-31T03:48:50;14.60;99.90
70368;DHT22;57789;53.868;10.728;2023-07-31T03:51:15;14.50;99.90
70368;DHT22;57789;53.868;10.728;2023-07-31T03:53:42;14.50;99.90
70368;DHT22;57789;53.868;10.728;2023-07-31T03:56:08;14.50;99.90
70368;DHT22;57789;53.868;10.728;2023-07-31T03:58:34;14.40;99.90
70368;DHT22;57789;53.868;10.728;2023-07-31T04:01:00;14.50;99.90
70368;DHT22;57789;53.868;10.728;2023-07-31T04:03:26;14.50;99.90
70368;DHT22;57789;53.868;10.728;2023-07-31T04:05:54;14.50;99.90
70368;DHT22;57789;53.868;10.728;2023-07-31T04:08:21;14.50;99.90
70368;DHT22;57789;53.868;10.728;2023-07-31T04:10:47;14.50;99.90
70368;DHT22;57789;53.868;10.728;2023-07-31T04:13:13;14.50;99.90
70368;DHT22;57789;53.868;10.728;2023-07-31T04:15:38;14.50;99.90
70368;DHT22;57789;53.868;10.728;2023-07-31T04:18:05;14.50;99.90
70368;DHT22;57789;53.868;10.728;2023-07-31T04:20:31;14.50;99.90
70368;DHT22;57789;53.868;10.728;2023-07-31T04:22:56;14.50;99.90
70368;DHT22;57789;53.868;10.728;2023-07-31T04:25:22;14.50;99.90
70368;DHT22;57789;53.868;10.728;2023-07-31T04:27:48;14.50;99.90
70368;DHT22;57789;53.868;10.728;2023-07-31T04:30:13;14.60;99.90
70368;DHT22;57789;53.868;10.728;2023-07-31T04:32:39;14.60;99.90
70368;DHT22;57789;53.868;10.728;2023-07-31T04:35:05;14.60;99.90
70368;DHT22;57789;53.868;10.728;2023-07-31T04:37:31;14.70;99.90
70368;DHT22;57789;53.868;10.728;2023-07-31T04:39:56;14.70;99.90
70368;DHT22;57789;53.868;10.728;2023-07-31T04:42:22;14.80;99.90
70368;DHT22;57789;53.868;10.728;2023-07-31T04:44:48;14.80;99.90
70368;DHT22;57789;53.868;10.728;2023-07-31T04:47:13;14.80;99.90
70368;DHT22;57789;53.868;10.728;2023-07-31T04:49:39;14.90;99.90
70368;DHT22;57789;53.868;10.728;2023-07-31T04:52:05;14.90;99.90
70368;DHT22;57789;53.868;10.728;2023-07-31T04:54:31;15.00;99.90
70368;DHT22;57789;53.868;10.728;2023-07-31T04:56:56;15.00;99.90
70368;DHT22;57789;53.868;10.728;2023-07-31T04:59:22;15.10;99.90
70368;DHT22;57789;53.868;10.728;2023-07-31T05:01:48;15.10;99.90
70368;DHT22;57789;53.868;10.728;2023-07-31T05:04:14;15.10;99.90
70368;DHT22;57789;53.868;10.728;2023-07-31T05:06:40;15.10;99.90
70368;DHT22;57789;53.868;10.728;2023-07-31T05:09:06;15.10;99.90
70368;DHT22;57789;53.868;10.728;2023-07-31T05:11:32;15.20;99.90
70368;DHT22;57789;53.868;10.728;2023-07-31T05:13:57;15.30;99.90
70368;DHT22;57789;53.868;10.728;2023-07-31T05:16:23;15.30;99.90
70368;DHT22;57789;53.868;10.728;2023-07-31T05:18:49;15.30;99.90
70368;DHT22;57789;53.868;10.728;2023-07-31T05:21:14;15.40;99.90
70368;DHT22;57789;53.868;10.728;2023-07-31T05:23:40;15.40;99.90
70368;DHT22;57789;53.868;10.728;2023-07-31T05:26:06;15.40;99.90
70368;DHT22;57789;53.868;10.728;2023-07-31T05:28:34;15.50;99.90
70368;DHT22;57789;53.868;10.728;2023-07-31T05:31:01;15.50;99.90
70368;DHT22;57789;53.868;10.728;2023-07-31T05:33:27;15.50;99.90
70368;DHT22;57789;53.868;10.728;2023-07-31T05:35:53;15.50;99.90
70368;DHT22;57789;53.868;10.728;2023-07-31T05:38:18;15.50;99.90
70368;DHT22;57789;53.868;10.728;2023-07-31T05:40:44;15.50;99.90
70368;DHT22;57789;53.868;10.728;2023-07-31T05:43:10;15.50;99.90
70368;DHT22;57789;53.868;10.728;2023-07-31T05:45:36;15.50;99.90
70368;DHT22;57789;53.868;10.728;2023-07-31T05:48:02;15.50;99.90
70368;DHT22;57789;53.868;10.728;2023-07-31T05:50:30;15.60;99.90
70368;DHT22;57789;53.868;10.728;2023-07-31T05:52:55;15.60;99.90
70368;DHT22;57789;53.868;10.728;2023-07-31T05:55:21;15.60;99.90
70368;DHT22;57789;53.868;10.728;2023-07-31T05:57:47;15.60;99.90
70368;DHT22;57789;53.868;10.728;2023-07-31T06:00:13;15.60;99.90
70368;DHT22;57789;53.868;10.728;2023-07-31T06:02:39;15.60;99.90
70368;DHT22;57789;53.868;10.728;2023-07-31T06:05:05;15.60;99.90
70368;DHT22;57789;53.868;10.728;2023-07-31T06:07:33;15.70;99.90
70368;DHT22;57789;53.868;10.728;2023-07-31T06:09:59;15.70;99.90
70368;DHT22;57789;53.868;10.728;2023-07-31T06:12:30;15.80;99.90
70368;DHT22;57789;53.868;10.728;2023-07-31T06:14:56;15.80;99.90
70368;DHT22;57789;53.868;10.728;2023-07-31T06:17:22;15.80;99.90
70368;DHT22;57789;53.868;10.728;2023-07-31T06:19:48;15.80;99.90
70368;DHT22;57789;53.868;10.728;2023-07-31T06:22:14;15.80;99.90
70368;DHT22;57789;53.868;10.728;2023-07-31T06:24:40;15.90;99.90
70368;DHT22;57789;53.868;10.728;2023-07-31T06:27:06;16.00;99.90
70368;DHT22;57789;53.868;10.728;2023-07-31T06:29:32;16.00;99.90
70368;DHT22;57789;53.868;10.728;2023-07-31T06:31:58;16.10;99.90
70368;DHT22;57789;53.868;10.728;2023-07-31T06:34:24;16.10;99.90
70368;DHT22;57789;53.868;10.728;2023-07-31T06:36:50;16.10;99.90
70368;DHT22;57789;53.868;10.728;2023-07-31T06:39:15;16.20;99.90
70368;DHT22;57789;53.868;10.728;2023-07-31T06:41:42;16.30;99.90
70368;DHT22;57789;53.868;10.728;2023-07-31T06:44:08;16.30;99.90
70368;DHT22;57789;53.868;10.728;2023-07-31T06:46:34;16.40;99.90
70368;DHT22;57789;53.868;10.728;2023-07-31T06:48:59;16.40;99.90
70368;DHT22;57789;53.868;10.728;2023-07-31T06:51:25;16.30;99.90
70368;DHT22;57789;53.868;10.728;2023-07-31T06:53:50;16.20;99.90
70368;DHT22;57789;53.868;10.728;2023-07-31T06:56:16;16.20;99.90
70368;DHT22;57789;53.868;10.728;2023-07-31T06:58:42;16.20;99.90
70368;DHT22;57789;53.868;10.728;2023-07-31T07:01:08;16.20;99.90
70368;DHT22;57789;53.868;10.728;2023-07-31T07:03:34;16.20;99.90
70368;DHT22;57789;53.868;10.728;2023-07-31T07:06:00;16.20;99.90
70368;DHT22;57789;53.868;10.728;2023-07-31T07:08:26;16.30;99.90
70368;DHT22;57789;53.868;10.728;2023-07-31T07:10:51;16.30;99.90
70368;DHT22;57789;53.868;10.728;2023-07-31T07:13:17;16.30;99.90
70368;DHT22;57789;53.868;10.728;2023-07-31T07:15:52;16.30;99.90
70368;DHT22;57789;53.868;10.728;2023-07-31T07:18:18;16.40;99.90
70368;DHT22;57789;53.868;10.728;2023-07-31T07:20:52;16.40;99.90
70368;DHT22;57789;53.868;10.728;2023-07-31T07:23:18;16.40;99.90
70368;DHT22;57789;53.868;10.728;2023-07-31T07:25:45;16.40;99.90
70368;DHT22;57789;53.868;10.728;2023-07-31T07:28:11;16.40;99.90
70368;DHT22;57789;53.868;10.728;2023-07-31T07:30:37;16.40;99.90
70368;DHT22;57789;53.868;10.728;2023-07-31T07:33:03;16.40;99.90
70368;DHT22;57789;53.868;10.728;2023-07-31T07:35:29;16.30;99.90
70368;DHT22;57789;53.868;10.728;2023-07-31T07:37:55;16.30;99.90
70368;DHT22;57789;53.868;10.728;2023-07-31T07:40:21;16.40;99.90
70368;DHT22;57789;53.868;10.728;2023-07-31T07:42:46;16.30;99.90
70368;DHT22;57789;53.868;10.728;2023-07-31T07:45:12;16.20;99.90
70368;DHT22;57789;53.868;10.728;2023-07-31T07:47:40;16.10;99.90
70368;DHT22;57789;53.868;10.728;2023-07-31T07:50:06;16.10;99.90
70368;DHT22;57789;53.868;10.728;2023-07-31T07:52:32;16.10;99.90
70368;DHT22;57789;53.868;10.728;2023-07-31T07:54:58;16.00;99.90
70368;DHT22;57789;53.868;10.728;2023-07-31T07:57:23;16.00;99.90
70368;DHT22;57789;53.868;10.728;2023-07-31T07:59:49;16.00;99.90
70368;DHT22;57789;53.868;10.728;2023-07-31T08:02:15;15.90;99.90
70368;DHT22;57789;53.868;10.728;2023-07-31T08:04:40;15.90;99.90
70368;DHT22;57789;53.868;10.728;2023-07-31T08:07:06;15.90;99.90
70368;DHT22;57789;53.868;10.728;2023-07-31T08:09:31;15.90;99.90
70368;DHT22;57789;53.868;10.728;2023-07-31T08:11:57;15.90;99.90
70368;DHT22;57789;53.868;10.728;2023-07-31T08:14:27;15.90;99.90
70368;DHT22;57789;53.868;10.728;2023-07-31T08:16:53;15.90;99.90
70368;DHT22;57789;53.868;10.728;2023-07-31T08:19:19;15.90;99.90
70368;DHT22;57789;53.868;10.728;2023-07-31T08:21:44;15.90;99.90
70368;DHT22;57789;53.868;10.728;2023-07-31T08:24:10;15.90;99.90
70368;DHT22;57789;53.868;10.728;2023-07-31T08:26:35;15.90;99.90
70368;DHT22;57789;53.868;10.728;2023-07-31T08:29:01;16.00;99.90
70368;DHT22;57789;53.868;10.728;2023-07-31T08:31:27;16.00;99.90
70368;DHT22;57789;53.868;10.728;2023-07-31T08:33:54;16.10;99.90
70368;DHT22;57789;53.868;10.728;2023-07-31T08:36:20;16.10;99.90
70368;DHT22;57789;53.868;10.728;2023-07-31T08:38:46;16.20;99.90
70368;DHT22;57789;53.868;10.728;2023-07-31T08:41:12;16.10;99.90
70368;DHT22;57789;53.868;10.728;2023-07-31T08:43:39;16.20;99.90
70368;DHT22;57789;53.868;10.728;2023-07-31T08:46:05;16.30;99.90
70368;DHT22;57789;53.868;10.728;2023-07-31T08:48:31;16.30;99.90
70368;DHT22;57789;53.868;10.728;2023-07-31T08:50:57;16.20;99.90
70368;DHT22;57789;53.868;10.728;2023-07-31T08:53:23;16.30;99.90
70368;DHT22;57789;53.868;10.728;2023-07-31T08:55:50;16.40;99.90
70368;DHT22;57789;53.868;10.728;2023-07-31T08:58:18;16.40;99.90
70368;DHT22;57789;53.868;10.728;2023-07-31T09:00:46;16.50;99.90
70368;DHT22;57789;53.868;10.728;2023-07-31T09:03:17;16.60;99.90
70368;DHT22;57789;53.868;10.728;2023-07-31T09:05:45;16.50;99.90
70368;DHT22;57789;53.868;10.728;2023-07-31T09:08:12;16.60;99.90
70368;DHT22;57789;53.868;10.728;2023-07-31T09:10:45;16.60;99.90
70368;DHT22;57789;53.868;10.728;2023-07-31T09:13:12;16.60;99.90
70368;DHT22;57789;53.868;10.728;2023-07-31T09:15:39;16.60;99.90
70368;DHT22;57789;53.868;10.728;2023-07-31T09:18:06;16.60;99.90
70368;DHT22;57789;53.868;10.728;2023-07-31T09:20:33;16.60;99.90
70368;DHT22;57789;53.868;10.728;2023-07-31T09:23:09;16.60;99.90
70368;DHT22;57789;53.868;10.728;2023-07-31T09:25:36;16.50;99.90
70368;DHT22;57789;53.868;10.728;2023-07-31T09:28:04;16.50;99.90
70368;DHT22;57789;53.868;10.728;2023-07-31T09:30:30;16.60;99.90
70368;DHT22;57789;53.868;10.728;2023-07-31T09:33:06;16.60;99.90
70368;DHT22;57789;53.868;10.728;2023-07-31T09:35:34;16.70;99.90
70368;DHT22;57789;53.868;10.728;2023-07-31T09:38:05;16.80;99.90
70368;DHT22;57789;53.868;10.728;2023-07-31T09:40:39;16.80;99.90
70368;DHT22;57789;53.868;10.728;2023-07-31T09:43:07;16.90;99.90
70368;DHT22;57789;53.868;10.728;2023-07-31T09:45:41;16.90;99.90
70368;DHT22;57789;53.868;10.728;2023-07-31T09:48:08;17.10;99.90
70368;DHT22;57789;53.868;10.728;2023-07-31T09:50:39;17.20;99.90
70368;DHT22;57789;53.868;10.728;2023-07-31T09:53:08;17.40;99.90
70368;DHT22;57789;53.868;10.728;2023-07-31T09:55:36;17.40;99.90
70368;DHT22;57789;53.868;10.728;2023-07-31T09:58:05;17.40;99.90
70368;DHT22;57789;53.868;10.728;2023-07-31T10:00:31;17.30;99.90
70368;DHT22;57789;53.868;10.728;2023-07-31T10:03:01;17.40;99.90
70368;DHT22;57789;53.868;10.728;2023-07-31T10:05:42;17.50;99.90
70368;DHT22;57789;53.868;10.728;2023-07-31T10:08:09;17.60;99.90
70368;DHT22;57789;53.868;10.728;2023-07-31T10:10:44;17.80;99.90
70368;DHT22;57789;53.868;10.728;2023-07-31T10:13:12;18.00;99.90
70368;DHT22;57789;53.868;10.728;2023-07-31T10:15:38;18.00;99.90
70368;DHT22;57789;53.868;10.728;2023-07-31T10:18:06;18.00;99.90
70368;DHT22;57789;53.868;10.728;2023-07-31T10:20:32;18.00;99.90
70368;DHT22;57789;53.868;10.728;2023-07-31T10:22:59;17.90;99.90
70368;DHT22;57789;53.868;10.728;2023-07-31T10:25:26;18.00;99.90
70368;DHT22;57789;53.868;10.728;2023-07-31T10:27:53;17.90;99.90
70368;DHT22;57789;53.868;10.728;2023-07-31T10:30:23;17.80;99.90
70368;DHT22;57789;53.868;10.728;2023-07-31T10:32:51;18.00;99.90
70368;DHT22;57789;53.868;10.728;2023-07-31T10:35:20;18.10;99.90
70368;DHT22;57789;53.868;10.728;2023-07-31T10:37:48;18.20;99.90
70368;DHT22;57789;53.868;10.728;2023-07-31T10:40:25;18.20;99.90
70368;DHT22;57789;53.868;10.728;2023-07-31T10:48:02;17.60;99.90
70368;DHT22;57789;53.868;10.728;2023-07-31T10:50:29;17.50;99.90
70368;DHT22;57789;53.868;10.728;2023-07-31T10:52:56;17.50;99.90
70368;DHT22;57789;53.868;10.728;2023-07-31T10:55:38;17.50;99.90
70368;DHT22;57789;53.868;10.728;2023-07-31T10:58:08;17.50;99.90
70368;DHT22;57789;53.868;10.728;2023-07-31T11:00:34;17.70;99.90
70368;DHT22;57789;53.868;10.728;2023-07-31T11:03:05;17.60;99.90
70368;DHT22;57789;53.868;10.728;2023-07-31T11:06:00;17.50;99.90
70368;DHT22;57789;53.868;10.728;2023-07-31T11:08:31;17.40;99.90
70368;DHT22;57789;53.868;10.728;2023-07-31T11:13:51;17.20;99.90
70368;DHT22;57789;53.868;10.728;2023-07-31T11:16:17;16.90;99.90
70368;DHT22;57789;53.868;10.728;2023-07-31T11:18:44;16.70;99.90
70368;DHT22;57789;53.868;10.728;2023-07-31T11:21:24;16.70;99.90
70368;DHT22;57789;53.868;10.728;2023-07-31T11:23:55;16.60;99.90
70368;DHT22;57789;53.868;10.728;2023-07-31T11:26:23;16.70;99.90
70368;DHT22;57789;53.868;10.728;2023-07-31T11:28:50;16.70;99.90
70368;DHT22;57789;53.868;10.728;2023-07-31T11:31:16;16.90;99.90
70368;DHT22;57789;53.868;10.728;2023-07-31T11:33:43;16.80;99.90
70368;DHT22;57789;53.868;10.728;2023-07-31T11:36:17;16.80;99.90
70368;DHT22;57789;53.868;10.728;2023-07-31T11:38:44;16.70;99.90
70368;DHT22;57789;53.868;10.728;2023-07-31T11:41:10;16.60;99.90
70368;DHT22;57789;53.868;10.728;2023-07-31T11:43:38;16.60;99.90
70368;DHT22;57789;53.868;10.728;2023-07-31T11:46:04;16.50;99.90
70368;DHT22;57789;53.868;10.728;2023-07-31T11:48:34;16.40;99.90
70368;DHT22;57789;53.868;10.728;2023-07-31T11:51:03;16.50;99.90
70368;DHT22;57789;53.868;10.728;2023-07-31T11:56:03;16.50;99.90
70368;DHT22;57789;53.868;10.728;2023-07-31T11:58:34;16.50;99.90
70368;DHT22;57789;53.868;10.728;2023-07-31T12:01:00;16.40;99.90
70368;DHT22;57789;53.868;10.728;2023-07-31T12:03:26;16.50;99.90
70368;DHT22;57789;53.868;10.728;2023-07-31T12:05:55;16.60;99.90
70368;DHT22;57789;53.868;10.728;2023-07-31T12:08:23;16.40;99.90
70368;DHT22;57789;53.868;10.728;2023-07-31T12:10:53;16.50;99.90
70368;DHT22;57789;53.868;10.728;2023-07-31T12:13:26;16.70;99.90
70368;DHT22;57789;53.868;10.728;2023-07-31T12:15:56;16.70;99.90
70368;DHT22;57789;53.868;10.728;2023-07-31T12:18:24;16.70;99.90
70368;DHT22;57789;53.868;10.728;2023-07-31T12:20:57;16.70;99.90
70368;DHT22;57789;53.868;10.728;2023-07-31T12:23:27;16.80;99.90
70368;DHT22;57789;53.868;10.728;2023-07-31T12:26:10;16.80;99.90
70368;DHT22;57789;53.868;10.728;2023-07-31T12:28:44;16.70;99.90
70368;DHT22;57789;53.868;10.728;2023-07-31T12:31:12;16.70;99.90
70368;DHT22;57789;53.868;10.728;2023-07-31T12:33:39;16.60;99.90
70368;DHT22;57789;53.868;10.728;2023-07-31T12:36:08;16.70;99.90
70368;DHT22;57789;53.868;10.728;2023-07-31T12:38:34;16.50;99.90
70368;DHT22;57789;53.868;10.728;2023-07-31T12:41:00;16.30;99.90
70368;DHT22;57789;53.868;10.728;2023-07-31T12:43:26;16.20;99.90
70368;DHT22;57789;53.868;10.728;2023-07-31T12:45:54;16.30;99.90
70368;DHT22;57789;53.868;10.728;2023-07-31T12:48:20;16.20;99.90
70368;DHT22;57789;53.868;10.728;2023-07-31T12:50:45;16.50;99.90
70368;DHT22;57789;53.868;10.728;2023-07-31T12:53:11;16.60;99.90
70368;DHT22;57789;53.868;10.728;2023-07-31T12:55:37;16.70;99.90
70368;DHT22;57789;53.868;10.728;2023-07-31T12:58:04;16.50;99.90
70368;DHT22;57789;53.868;10.728;2023-07-31T13:00:30;16.60;99.90
70368;DHT22;57789;53.868;10.728;2023-07-31T13:02:56;16.70;99.90
70368;DHT22;57789;53.868;10.728;2023-07-31T13:05:21;16.90;99.90
70368;DHT22;57789;53.868;10.728;2023-07-31T13:07:50;17.00;99.90
70368;DHT22;57789;53.868;10.728;2023-07-31T13:10:15;17.10;99.90
70368;DHT22;57789;53.868;10.728;2023-07-31T13:12:41;17.20;99.90
70368;DHT22;57789;53.868;10.728;2023-07-31T13:15:07;17.30;99.90
70368;DHT22;57789;53.868;10.728;2023-07-31T13:17:33;17.40;99.90
70368;DHT22;57789;53.868;10.728;2023-07-31T13:19:59;17.30;99.90
70368;DHT22;57789;53.868;10.728;2023-07-31T13:22:26;17.30;99.90
70368;DHT22;57789;53.868;10.728;2023-07-31T13:24:52;17.30;99.90
70368;DHT22;57789;53.868;10.728;2023-07-31T13:27:17;17.30;99.90
70368;DHT22;57789;53.868;10.728;2023-07-31T13:29:53;17.40;99.90
70368;DHT22;57789;53.868;10.728;2023-07-31T13:32:19;17.40;99.90
70368;DHT22;57789;53.868;10.728;2023-07-31T13:34:46;17.30;99.90
70368;DHT22;57789;53.868;10.728;2023-07-31T13:42:26;17.50;99.90
70368;DHT22;57789;53.868;10.728;2023-07-31T13:44:57;17.50;99.90
70368;DHT22;57789;53.868;10.728;2023-07-31T13:47:23;17.60;99.90
70368;DHT22;57789;53.868;10.728;2023-07-31T13:49:48;17.80;99.90
70368;DHT22;57789;53.868;10.728;2023-07-31T13:52:15;18.00;99.90
70368;DHT22;57789;53.868;10.728;2023-07-31T13:54:40;18.10;99.90
70368;DHT22;57789;53.868;10.728;2023-07-31T13:57:12;18.10;99.90
70368;DHT22;57789;53.868;10.728;2023-07-31T13:59:39;18.10;99.90
70368;DHT22;57789;53.868;10.728;2023-07-31T14:02:06;18.00;99.90
70368;DHT22;57789;53.868;10.728;2023-07-31T14:04:33;17.90;99.90
70368;DHT22;57789;53.868;10.728;2023-07-31T14:06:58;17.90;99.90
70368;DHT22;57789;53.868;10.728;2023-07-31T14:09:25;18.00;99.90
70368;DHT22;57789;53.868;10.728;2023-07-31T14:11:50;17.90;99.90
70368;DHT22;57789;53.868;10.728;2023-07-31T14:14:16;17.80;99.90
70368;DHT22;57789;53.868;10.728;2023-07-31T14:20:06;18.00;99.90
70368;DHT22;57789;53.868;10.728;2023-07-31T14:22:35;18.00;99.90
70368;DHT22;57789;53.868;10.728;2023-07-31T14:25:01;17.80;99.90
70368;DHT22;57789;53.868;10.728;2023-07-31T14:27:27;17.70;99.90
70368;DHT22;57789;53.868;10.728;2023-07-31T14:29:53;17.50;99.90
70368;DHT22;57789;53.868;10.728;2023-07-31T14:32:20;17.50;99.90
70368;DHT22;57789;53.868;10.728;2023-07-31T14:34:46;17.60;99.90
70368;DHT22;57789;53.868;10.728;2023-07-31T14:37:12;17.90;99.90
70368;DHT22;57789;53.868;10.728;2023-07-31T14:39:38;17.80;99.90
70368;DHT22;57789;53.868;10.728;2023-07-31T14:42:04;17.90;99.90
70368;DHT22;57789;53.868;10.728;2023-07-31T14:44:29;17.80;99.90
70368;DHT22;57789;53.868;10.728;2023-07-31T14:46:59;17.80;99.90
70368;DHT22;57789;53.868;10.728;2023-07-31T15:16:53;17.10;99.90
70368;DHT22;57789;53.868;10.728;2023-07-31T15:19:22;17.10;99.90
70368;DHT22;57789;53.868;10.728;2023-07-31T15:21:52;16.90;99.90
70368;DHT22;57789;53.868;10.728;2023-07-31T15:24:18;16.70;99.90
70368;DHT22;57789;53.868;10.728;2023-07-31T15:26:46;16.60;99.90
70368;DHT22;57789;53.868;10.728;2023-07-31T15:29:12;16.40;99.90
70368;DHT22;57789;53.868;10.728;2023-07-31T15:31:43;16.40;99.90
70368;DHT22;57789;53.868;10.728;2023-07-31T15:34:09;16.40;99.90
70368;DHT22;57789;53.868;10.728;2023-07-31T15:36:35;16.50;99.90
70368;DHT22;57789;53.868;10.728;2023-07-31T15:39:02;16.50;99.90
70368;DHT22;57789;53.868;10.728;2023-07-31T15:41:38;16.50;99.90
70368;DHT22;57789;53.868;10.728;2023-07-31T15:44:15;16.60;99.90
70368;DHT22;57789;53.868;10.728;2023-07-31T15:46:45;16.60;99.90
70368;DHT22;57789;53.868;10.728;2023-07-31T15:49:22;16.60;99.90
70368;DHT22;57789;53.868;10.728;2023-07-31T15:51:55;16.50;99.90
70368;DHT22;57789;53.868;10.728;2023-07-31T15:54:29;16.40;99.90
70368;DHT22;57789;53.868;10.728;2023-07-31T15:56:57;16.50;99.90
70368;DHT22;57789;53.868;10.728;2023-07-31T15:59:26;16.50;99.90
70368;DHT22;57789;53.868;10.728;2023-07-31T16:01:57;16.50;99.90
70368;DHT22;57789;53.868;10.728;2023-07-31T16:04:24;16.50;99.90
70368;DHT22;57789;53.868;10.728;2023-07-31T16:06:58;16.60;99.90